Time;durP1;ratioP1;P1;durP2;ratioP2;P2;SDS_P1;SDS_P2;PMS_P1;PMS_P2;Temp;Humidity;BMP_temperature;BMP_pressure;BME280_temperature;BME280_humidity;BME280_pressure;Samples;Min_cycle;Max_cycle;Signal;HPM_P1;HPM_P2
2022/01/13 00:00:16;;;;;;;30.15;17.48;;;;;;;-6.12;100.00;94337.25;5049247;28;20471;-88
2022/01/13 00:02:43;;;;;;;30.60;18.02;;;;;;;-6.12;100.00;94341.47;5049186;28;20059;-88
2022/01/13 00:05:12;;;;;;;28.05;17.17;;;;;;;-6.22;100.00;94331.94;5047739;28;20056;-87
2022/01/13 00:07:39;;;;;;;33.20;19.23;;;;;;;-6.13;100.00;94329.81;5049035;28;20065;-88
2022/01/13 00:10:14;;;;;;;25.70;16.98;;;;;;;-6.12;100.00;94341.47;5048896;28;20183;-88
2022/01/13 00:12:43;;;;;;;29.52;17.92;;;;;;;-6.25;100.00;94327.06;5048600;28;20083;-88
2022/01/13 00:15:22;;;;;;;28.05;17.13;;;;;;;-6.28;100.00;94349.75;5049128;28;20474;-88
2022/01/13 00:18:10;;;;;;;30.40;16.98;;;;;;;-6.40;100.00;94322.88;5049018;28;20454;-87
2022/01/13 00:21:09;;;;;;;28.67;16.77;;;;;;;-6.25;100.00;94337.06;5048762;28;20080;-87
2022/01/13 00:23:41;;;;;;;31.17;17.48;;;;;;;-6.35;100.00;94346.75;5048690;28;20053;-88
2022/01/13 00:26:16;;;;;;;28.60;17.20;;;;;;;-6.36;100.00;94364.31;5047657;28;20353;-88
2022/01/13 00:28:44;;;;;;;30.25;18.05;;;;;;;-6.33;100.00;94352.50;5049227;28;20550;-88
2022/01/13 00:31:12;;;;;;;29.23;17.10;;;;;;;-6.38;100.00;94361.91;5048475;28;20053;-88
2022/01/13 00:33:45;;;;;;;31.17;17.10;;;;;;;-6.39;100.00;94365.28;5048608;28;20096;-87
2022/01/13 00:36:15;;;;;;;28.35;16.33;;;;;;;-6.46;100.00;94364.81;5048516;28;20048;-86
2022/01/13 00:38:43;;;;;;;26.58;16.75;;;;;;;-6.72;100.00;94346.09;5048613;28;20053;-87
2022/01/13 00:41:13;;;;;;;30.15;17.75;;;;;;;-6.49;100.00;94364.16;5048449;28;20138;-88
2022/01/13 00:43:42;;;;;;;30.55;18.05;;;;;;;-6.55;100.00;94365.25;5048301;28;20381;-88
2022/01/13 00:46:09;;;;;;;30.27;18.00;;;;;;;-6.55;100.00;94375.25;5048310;28;20136;-88
2022/01/13 00:48:36;;;;;;;28.60;18.02;;;;;;;-6.61;100.00;94378.84;5048215;28;20056;-87
2022/01/13 00:51:03;;;;;;;28.63;17.38;;;;;;;-6.64;100.00;94371.53;5048445;28;20045;-86
2022/01/13 00:53:33;;;;;;;29.42;17.83;;;;;;;-6.76;100.00;94359.66;5048098;28;20049;-88
2022/01/13 00:55:59;;;;;;;33.40;18.95;;;;;;;-6.57;100.00;94379.53;5048105;28;20059;-88
2022/01/13 00:58:31;;;;;;;32.30;18.63;;;;;;;-6.59;100.00;94386.28;5055164;28;20048;-87
2022/01/13 01:00:59;;;;;;;34.08;18.75;;;;;;;-6.57;100.00;94377.81;5067563;28;20127;-89
2022/01/13 01:03:29;;;;;;;31.40;18.92;;;;;;;-6.79;100.00;94360.59;5068168;28;20099;-87
2022/01/13 01:05:56;;;;;;;31.15;16.83;;;;;;;-6.68;100.00;94386.75;5067916;28;20052;-87
2022/01/13 01:08:24;;;;;;;31.77;19.27;;;;;;;-6.69;100.00;94387.63;5058758;28;20496;-88
2022/01/13 01:10:55;;;;;;;30.02;17.38;;;;;;;-6.76;100.00;94379.63;5047913;28;20045;-88
2022/01/13 01:13:27;;;;;;;31.48;19.10;;;;;;;-6.77;100.00;94383.81;5048366;28;20065;-87
2022/01/13 01:15:57;;;;;;;29.55;18.30;;;;;;;-6.73;100.00;94385.28;5047804;28;20052;-88
2022/01/13 01:18:32;;;;;;;32.13;19.50;;;;;;;-6.81;100.00;94374.84;5047728;28;20052;-87
2022/01/13 01:21:30;;;;;;;29.08;19.10;;;;;;;-6.94;100.00;94382.16;5047591;28;20403;-86
2022/01/13 01:24:13;;;;;;;32.05;18.80;;;;;;;-6.95;100.00;94383.00;5047511;28;20076;-87
2022/01/13 01:26:46;;;;;;;33.80;18.52;;;;;;;-6.91;100.00;94381.97;5047475;28;20434;-88
2022/01/13 01:29:20;;;;;;;30.95;18.05;;;;;;;-6.88;100.00;94389.34;5047441;28;20057;-87
2022/01/13 01:31:51;;;;;;;31.77;18.17;;;;;;;-6.92;100.00;94399.53;5050520;28;20085;-87
2022/01/13 01:34:30;;;;;;;30.48;17.63;;;;;;;-6.98;100.00;94380.69;5051985;28;20227;-86
2022/01/13 01:36:59;;;;;;;32.38;17.65;;;;;;;-6.97;100.00;94379.78;5051851;28;20056;-87
2022/01/13 01:39:28;;;;;;;30.95;17.67;;;;;;;-7.09;100.00;94367.91;5051636;28;20532;-87
2022/01/13 01:41:57;;;;;;;33.00;19.95;;;;;;;-7.18;100.00;94374.13;5051459;28;20041;-87
2022/01/13 01:44:33;;;;;;;31.52;18.75;;;;;;;-7.08;100.00;94389.47;5051846;28;20053;-88
2022/01/13 01:47:00;;;;;;;33.60;18.77;;;;;;;-7.02;100.00;94395.00;5051265;28;20549;-88
2022/01/13 01:49:28;;;;;;;32.15;19.58;;;;;;;-7.07;100.00;94391.09;5050865;28;20056;-88
2022/01/13 01:51:57;;;;;;;30.50;17.45;;;;;;;-7.08;100.00;94410.28;5049842;28;20057;-87
2022/01/13 01:54:25;;;;;;;33.65;19.90;;;;;;;-7.05;100.00;94400.13;5050304;28;20052;-87
2022/01/13 01:56:55;;;;;;;31.48;19.50;;;;;;;-7.10;100.00;94402.03;5051245;28;20103;-86
2022/01/13 01:59:36;;;;;;;;;;;;;;;;;;;;;
2022/01/13 02:02:07;;;;;;;35.28;20.35;;;;;;;-7.09;100.00;94396.16;5050571;28;20055;-87
2022/01/13 02:04:34;;;;;;;31.25;18.65;;;;;;;-7.21;100.00;94381.75;5051252;28;20438;-87
2022/01/13 02:07:03;;;;;;;35.22;19.50;;;;;;;-7.26;100.00;94370.28;5051067;28;20698;-87
2022/01/13 02:09:35;;;;;;;28.10;17.98;;;;;;;-7.15;100.00;94397.28;5051494;28;20085;-87
2022/01/13 02:12:06;;;;;;;32.30;19.52;;;;;;;-7.15;100.00;94374.78;5051351;28;20041;-87
2022/01/13 02:14:49;;;;;;;31.83;19.02;;;;;;;-7.15;100.00;94381.47;5051027;28;20053;-87
2022/01/13 02:17:24;;;;;;;35.90;21.08;;;;;;;-7.16;100.00;94378.19;5050932;28;20123;-88
2022/01/13 02:19:57;;;;;;;35.75;20.30;;;;;;;-7.12;100.00;94372.13;5051244;28;20053;-88
2022/01/13 02:22:26;;;;;;;31.60;18.27;;;;;;;-7.23;100.00;94384.31;5051101;28;20057;-87
2022/01/13 02:24:54;;;;;;;32.85;19.27;;;;;;;-7.12;100.00;94393.81;5050901;28;20047;-87
2022/01/13 02:27:21;;;;;;;42.55;22.52;;;;;;;-7.13;100.00;94398.00;5050853;28;20048;-87
2022/01/13 02:29:48;;;;;;;35.22;19.85;;;;;;;-7.22;100.00;94390.97;5050698;28;20053;-87
2022/01/13 02:32:15;;;;;;;31.65;18.08;;;;;;;-7.28;100.00;94401.22;5051048;28;20118;-87
2022/01/13 02:34:48;;;;;;;45.38;22.23;;;;;;;-7.35;100.00;94384.91;5050959;28;20052;-87
2022/01/13 02:37:19;;;;;;;35.22;19.63;;;;;;;-7.52;100.00;94376.50;5050995;28;20048;-87
2022/01/13 02:39:48;;;;;;;34.08;19.65;;;;;;;-7.63;100.00;94343.75;5051468;28;20045;-87
2022/01/13 02:42:16;;;;;;;32.70;19.02;;;;;;;-7.34;100.00;94394.00;5050584;28;20048;-86
2022/01/13 02:44:50;;;;;;;32.50;18.38;;;;;;;-7.32;100.00;94405.53;5050923;28;20111;-86
2022/01/13 02:47:35;;;;;;;36.90;20.58;;;;;;;-7.38;100.00;94386.69;5050616;28;20483;-88
2022/01/13 02:50:03;;;;;;;36.00;20.83;;;;;;;-7.31;100.00;94403.88;5050482;28;20098;-88
2022/01/13 02:52:30;;;;;;;30.48;18.25;;;;;;;-7.40;100.00;94395.13;5050526;28;20059;-87
2022/01/13 02:54:58;;;;;;;36.25;20.27;;;;;;;-7.31;100.00;94407.16;5050380;28;20060;-87
2022/01/13 02:57:29;;;;;;;42.70;24.98;;;;;;;-7.21;100.00;94402.56;5050780;28;20110;-88
2022/01/13 02:59:55;;;;;;;32.95;20.38;;;;;;;-7.28;100.00;94397.03;5050797;28;20076;-88
2022/01/13 03:02:28;;;;;;;32.10;18.63;;;;;;;-7.31;100.00;94398.88;5050519;28;20057;-87
2022/01/13 03:04:55;;;;;;;29.67;18.40;;;;;;;-7.43;100.00;94388.56;5050575;28;20077;-87
2022/01/13 03:07:25;;;;;;;32.35;19.33;;;;;;;-7.36;100.00;94383.28;5050492;28;20114;-88
2022/01/13 03:09:52;;;;;;;33.08;18.92;;;;;;;-7.36;100.00;94384.13;5050239;28;20048;-89
2022/01/13 03:12:22;;;;;;;32.70;19.67;;;;;;;-7.36;100.00;94386.59;5051090;28;20056;-88
2022/01/13 03:14:49;;;;;;;29.77;16.75;;;;;;;-7.42;100.00;94384.38;5050324;28;20049;-88
2022/01/13 03:17:16;;;;;;;28.58;17.55;;;;;;;-7.73;100.00;94349.16;5050317;28;20048;-87
2022/01/13 03:19:44;;;;;;;31.00;18.58;;;;;;;-7.47;100.00;94391.25;5050329;28;20049;-88
2022/01/13 03:22:15;;;;;;;30.85;18.40;;;;;;;-7.53;100.00;94389.88;5050513;28;20053;-88
2022/01/13 03:24:42;;;;;;;33.08;17.92;;;;;;;-7.66;100.00;94362.19;5051156;28;20451;-87
2022/01/13 03:27:18;;;;;;;33.55;19.05;;;;;;;-7.47;100.00;94388.75;5054074;28;20056;-88
2022/01/13 03:29:48;;;;;;;28.83;16.77;;;;;;;-7.49;100.00;94390.53;5054025;28;20523;-87
2022/01/13 03:32:15;;;;;;;32.88;19.85;;;;;;;-7.48;100.00;94385.47;5054020;28;20055;-87
2022/01/13 03:34:47;;;;;;;32.45;17.42;;;;;;;-7.46;100.00;94398.69;5054262;28;20049;-88
2022/01/13 03:37:14;;;;;;;29.27;17.55;;;;;;;-7.53;100.00;94399.84;5053994;28;20484;-88
2022/01/13 03:39:41;;;;;;;31.13;17.38;;;;;;;-7.51;100.00;94395.59;5054160;28;20407;-88
2022/01/13 03:42:11;;;;;;;29.23;17.48;;;;;;;-7.47;100.00;94407.06;5053878;28;20538;-87
2022/01/13 03:44:53;;;;;;;;;;;;;;;;;;;;;
2022/01/13 03:47:22;;;;;;;27.83;17.13;;;;;;;-7.56;100.00;94404.97;5053881;28;20495;-87
2022/01/13 03:49:55;;;;;;;28.67;16.48;;;;;;;-7.55;100.00;94396.63;5053808;28;20549;-87
2022/01/13 03:52:51;;;;;;;30.58;17.75;;;;;;;-7.52;100.00;94411.44;5053736;28;20088;-87
2022/01/13 03:56:06;;;;;;;26.20;15.93;;;;;;;-7.57;100.00;94405.84;5053579;28;20041;-86
2022/01/13 03:59:23;;;;;;;26.77;16.30;;;;;;;-7.60;100.00;94406.81;5052029;28;20049;-88
2022/01/13 04:02:20;;;;;;;24.73;14.82;;;;;;;-7.63;100.00;94401.16;5053643;28;20541;-87
2022/01/13 04:04:52;;;;;;;28.10;16.50;;;;;;;-7.64;100.00;94395.38;5019482;28;20060;-87
2022/01/13 04:07:24;;;;;;;29.08;18.40;;;;;;;-7.83;100.00;94361.25;5053324;28;20053;-88
2022/01/13 04:10:27;;;;;;;29.35;17.48;;;;;;;-7.48;100.00;94417.94;5053234;28;20569;-87
2022/01/13 04:12:54;;;;;;;30.33;18.88;;;;;;;-7.82;100.00;94365.38;5051413;28;20099;-87
2022/01/13 04:15:24;;;;;;;29.45;17.42;;;;;;;-7.51;100.00;94426.38;5053442;28;20053;-87
2022/01/13 04:17:51;;;;;;;28.42;16.95;;;;;;;-7.41;100.00;94438.44;5053286;28;20202;-88
2022/01/13 04:20:22;;;;;;;26.83;17.15;;;;;;;-7.45;100.00;94436.94;5053015;28;20060;-88
2022/01/13 04:22:55;;;;;;;27.85;15.48;;;;;;;-7.48;100.00;94440.38;5053093;28;20053;-88
2022/01/13 04:25:23;;;;;;;28.85;16.52;;;;;;;-7.52;100.00;94449.72;5053119;28;20044;-88
2022/01/13 04:27:51;;;;;;;31.00;18.73;;;;;;;-7.59;100.00;94457.53;5053241;28;20052;-88
2022/01/13 04:33:13;;;;;;;24.48;15.48;;;;;;;-7.63;100.00;94461.84;5051988;28;20057;-87
2022/01/13 04:35:42;;;;;;;25.52;16.42;;;;;;;-7.71;100.00;94469.69;5053045;28;20045;-87
2022/01/13 04:38:08;;;;;;;26.02;15.93;;;;;;;-7.73;100.00;94468.91;5052999;28;20136;-87
2022/01/13 04:40:42;;;;;;;25.08;15.18;;;;;;;-7.68;100.00;94463.75;5052851;28;20049;-87
2022/01/13 04:43:09;;;;;;;30.25;17.55;;;;;;;-7.65;100.00;94459.41;5052604;28;20488;-87
2022/01/13 04:45:36;;;;;;;28.33;16.17;;;;;;;-7.63;100.00;94448.56;5052837;28;20063;-88
2022/01/13 04:48:03;;;;;;;24.65;14.82;;;;;;;-7.99;100.00;94423.50;5052790;28;20091;-87
2022/01/13 04:50:34;;;;;;;27.80;16.88;;;;;;;-7.81;100.00;94449.31;5052963;28;20143;-87
2022/01/13 04:53:04;;;;;;;28.25;15.40;;;;;;;-7.80;100.00;94435.16;5052808;28;20057;-87
2022/01/13 04:55:34;;;;;;;27.90;16.23;;;;;;;-7.71;100.00;94441.41;5052453;28;20055;-88
2022/01/13 04:58:07;;;;;;;24.92;15.25;;;;;;;-7.80;100.00;94437.63;5052566;28;20048;-87
2022/01/13 05:00:35;;;;;;;25.80;17.05;;;;;;;-7.70;100.00;94448.84;5052539;28;20052;-88
2022/01/13 05:03:03;;;;;;;27.08;15.82;;;;;;;-7.63;100.00;94454.38;5052403;28;20091;-88
2022/01/13 05:05:33;;;;;;;26.33;16.65;;;;;;;-7.57;100.00;94463.25;5052473;28;20107;-88
2022/01/13 05:08:03;;;;;;;24.35;15.00;;;;;;;-7.79;100.00;94446.72;5052272;28;20136;-87
2022/01/13 05:10:29;;;;;;;26.30;15.80;;;;;;;-7.69;100.00;94452.94;5052202;28;20049;-88
2022/01/13 05:13:10;;;;;;;24.77;14.85;;;;;;;-7.71;100.00;94456.38;5052521;28;20044;-88
2022/01/13 05:15:42;;;;;;;24.73;14.77;;;;;;;-8.09;100.00;94408.13;5052198;28;20083;-86
2022/01/13 05:18:28;;;;;;;27.55;15.88;;;;;;;-7.75;100.00;94464.88;5052094;28;20049;-87
2022/01/13 05:21:02;;;;;;;25.13;15.25;;;;;;;-7.84;100.00;94473.56;5052227;28;20045;-87
2022/01/13 05:23:30;;;;;;;24.50;15.07;;;;;;;-7.92;100.00;94474.72;5052172;28;20053;-87
2022/01/13 05:26:02;;;;;;;23.52;15.20;;;;;;;-8.13;100.00;94441.53;5052390;28;20049;-87
2022/01/13 05:28:31;;;;;;;24.55;14.75;;;;;;;-7.97;100.00;94478.28;5052221;28;20448;-87
2022/01/13 05:30:58;;;;;;;27.77;14.80;;;;;;;-8.01;100.00;94477.59;5051745;28;20416;-87
2022/01/13 05:33:25;;;;;;;26.45;15.13;;;;;;;-8.03;100.00;94473.53;5051721;28;20049;-87
2022/01/13 05:35:51;;;;;;;28.13;16.63;;;;;;;-8.08;100.00;94466.28;5051918;28;20060;-87
2022/01/13 05:38:19;;;;;;;24.67;14.95;;;;;;;-7.92;100.00;94482.19;5051819;28;20041;-88
2022/01/13 05:40:48;;;;;;;26.33;15.75;;;;;;;-7.93;100.00;94482.25;5052264;28;20045;-88
2022/01/13 05:43:28;;;;;;;29.55;16.05;;;;;;;-7.95;100.00;94479.03;5051663;28;20041;-86
2022/01/13 05:46:04;;;;;;;30.63;16.92;;;;;;;-7.92;100.00;94488.88;5051505;28;20048;-87
2022/01/13 05:48:59;;;;;;;;;;;;;;;-7.86;100.00;94490.28;5052253;28;20173;-88
2022/01/13 05:51:33;;;;;;;26.50;15.27;;;;;;;-8.74;100.00;94383.47;5033198;28;19960;-87
2022/01/13 05:54:07;;;;;;;26.73;15.82;;;;;;;-8.10;100.00;94473.00;5051322;28;20049;-88
2022/01/13 05:56:37;;;;;;;28.85;16.20;;;;;;;-8.07;100.00;94490.31;5051334;28;20460;-88
2022/01/13 05:59:04;;;;;;;27.60;16.13;;;;;;;-7.99;100.00;94493.31;5051569;28;20044;-88
2022/01/13 06:01:46;;;;;;;29.27;17.52;;;;;;;-8.78;100.00;94385.28;5051440;28;20041;-88
2022/01/13 06:04:47;;;;;;;25.42;16.52;;;;;;;-8.84;100.00;94382.22;5050662;28;20044;-88
2022/01/13 06:07:21;;;;;;;26.35;16.05;;;;;;;-8.99;100.00;94360.38;5051034;28;20057;-88
2022/01/13 06:09:52;;;;;;;31.88;16.73;;;;;;;-8.10;100.00;94508.72;5051243;28;20099;-87
2022/01/13 06:12:37;;;;;;;30.40;17.02;;;;;;;-8.82;100.00;94411.19;5051069;28;20048;-88
2022/01/13 06:15:24;;;;;;;25.65;15.02;;;;;;;-9.18;100.00;94372.75;5051101;28;20053;-88
2022/01/13 06:17:52;;;;;;;27.25;17.10;;;;;;;-8.12;100.00;94515.47;5051133;28;20051;-87
2022/01/13 06:20:20;;;;;;;27.27;16.20;;;;;;;-8.20;100.00;94522.47;5051089;28;20045;-88
2022/01/13 06:23:15;;;;;;;25.02;15.38;;;;;;;-8.15;100.00;94528.03;5050944;28;20483;-89
2022/01/13 06:26:29;;;;;;;28.08;16.42;;;;;;;-9.00;100.00;94392.81;5050921;28;20103;-88
2022/01/13 06:29:16;;;;;;;27.45;17.10;;;;;;;-8.87;100.00;94426.31;5050924;28;20114;-88
2022/01/13 06:31:54;;;;;;;27.42;15.48;;;;;;;-8.12;100.00;94539.56;5051596;28;20052;-87
2022/01/13 06:34:28;;;;;;;29.35;17.15;;;;;;;-8.94;100.00;94426.63;5050887;28;20048;-86
2022/01/13 06:36:54;;;;;;;24.85;15.60;;;;;;;-8.28;100.00;94554.34;5050945;28;20098;-88
2022/01/13 06:39:21;;;;;;;26.40;15.25;;;;;;;-8.37;100.00;94563.84;5050822;28;20056;-86
2022/01/13 06:41:48;;;;;;;27.63;15.52;;;;;;;-8.24;100.00;94563.34;5033992;28;20048;-87
2022/01/13 06:44:16;;;;;;;24.83;15.10;;;;;;;-8.42;100.00;94553.25;5049048;28;20500;-87
2022/01/13 06:46:43;;;;;;;23.80;15.15;;;;;;;-8.43;100.00;94574.00;5050758;28;20663;-87
2022/01/13 06:49:10;;;;;;;27.42;15.10;;;;;;;-8.48;100.00;94578.41;5050569;28;20099;-87
2022/01/13 06:51:36;;;;;;;26.02;15.35;;;;;;;-8.39;100.00;94575.53;5050563;28;20052;-87
2022/01/13 06:54:05;;;;;;;24.63;14.60;;;;;;;-8.67;100.00;94545.94;5050658;28;20099;-87
2022/01/13 06:56:32;;;;;;;25.70;13.82;;;;;;;-8.52;100.00;94569.44;5050478;28;20056;-87
2022/01/13 06:58:59;;;;;;;25.48;14.13;;;;;;;-8.57;100.00;94577.09;5050787;28;20045;-87
2022/01/13 07:01:27;;;;;;;22.95;14.70;;;;;;;-8.63;100.00;94574.84;5054480;28;20057;-87
2022/01/13 07:03:55;;;;;;;24.80;14.85;;;;;;;-8.51;100.00;94585.97;5054700;28;20044;-87
2022/01/13 07:06:29;;;;;;;23.02;13.63;;;;;;;-9.56;100.00;94452.19;5054606;28;20053;-86
2022/01/13 07:08:56;;;;;;;28.92;15.18;;;;;;;-8.51;100.00;94589.28;5054456;28;20045;-87
2022/01/13 07:11:27;;;;;;;27.25;15.30;;;;;;;-8.54;100.00;94598.56;5054777;28;20106;-87
2022/01/13 07:13:54;;;;;;;26.67;15.68;;;;;;;-8.53;100.00;94602.72;5054687;28;20048;-88
2022/01/13 07:16:21;;;;;;;23.45;13.40;;;;;;;-8.63;100.00;94602.22;5054413;28;20063;-86
2022/01/13 07:18:51;;;;;;;27.52;16.15;;;;;;;-8.61;100.00;94601.31;5054591;28;20045;-86
2022/01/13 07:21:20;;;;;;;35.70;18.63;;;;;;;-9.09;100.00;94545.03;5054824;28;20045;-86
2022/01/13 07:23:47;;;;;;;25.67;15.95;;;;;;;-8.70;100.00;94600.84;5054185;28;20075;-87
2022/01/13 07:26:14;;;;;;;28.02;16.85;;;;;;;-8.66;100.00;94603.16;5054410;28;20435;-86
2022/01/13 07:28:41;;;;;;;24.67;14.30;;;;;;;-8.84;100.00;94586.44;5054406;28;20051;-87
2022/01/13 07:31:08;;;;;;;25.60;14.98;;;;;;;-8.59;100.00;94617.03;5054316;28;20064;-87
2022/01/13 07:33:38;;;;;;;25.05;14.05;;;;;;;-8.65;100.00;94616.44;5054219;28;20483;-86
2022/01/13 07:36:06;;;;;;;24.98;15.30;;;;;;;-8.51;100.00;94616.72;5053987;28;20052;-86
2022/01/13 07:38:33;;;;;;;24.23;14.50;;;;;;;-8.34;100.00;94613.53;5054282;28;20197;-86
2022/01/13 07:41:01;;;;;;;24.52;14.73;;;;;;;-8.31;100.00;94617.59;5054012;28;20483;-86
2022/01/13 07:43:28;;;;;;;24.00;15.48;;;;;;;-8.46;100.00;94614.03;5054127;28;20048;-86
2022/01/13 07:45:55;;;;;;;21.40;13.07;;;;;;;-8.76;100.00;94605.19;5053993;28;20045;-85
2022/01/13 07:48:24;;;;;;;23.27;13.95;;;;;;;-8.50;100.00;94620.00;5053924;28;20110;-87
2022/01/13 07:51:01;;;;;;;29.65;14.45;;;;;;;-8.73;100.00;94604.28;5051949;28;20396;-86
2022/01/13 07:53:32;;;;;;;24.70;14.77;;;;;;;-8.62;100.00;94627.09;5048719;28;20432;-85
2022/01/13 07:56:00;;;;;;;30.88;16.83;;;;;;;-8.59;100.00;94641.13;5047639;28;20096;-85
2022/01/13 07:58:27;;;;;;;24.17;13.85;;;;;;;-8.61;100.00;94645.34;5053575;28;20045;-86
2022/01/13 08:01:01;;;;;;;24.80;15.25;;;;;;;-8.53;100.00;94655.84;5053526;28;20454;-86
2022/01/13 08:03:30;;;;;;;26.85;15.30;;;;;;;-8.50;100.00;94648.22;5053846;28;20053;-84
2022/01/13 08:06:04;;;;;;;26.05;15.10;;;;;;;-8.72;100.00;94633.28;5053646;28;20049;-84
2022/01/13 08:08:35;;;;;;;24.35;15.07;;;;;;;-8.78;100.00;94628.53;5053627;28;20056;-84
2022/01/13 08:11:02;;;;;;;25.88;15.90;;;;;;;-8.74;100.00;94650.78;5052982;28;20095;-86
2022/01/13 08:13:36;;;;;;;27.08;15.65;;;;;;;-9.63;100.00;94526.19;5053262;28;20510;-87
2022/01/13 08:16:07;;;;;;;22.88;13.43;;;;;;;-8.79;100.00;94661.78;5053359;28;20136;-86
2022/01/13 08:21:35;;;;;;;25.13;13.57;;;;;;;-8.78;100.00;94644.31;4991690;28;20057;-86
2022/01/13 08:24:07;;;;;;;27.95;15.15;;;;;;;-8.45;100.00;94676.28;4991586;28;20417;-87
2022/01/13 08:26:33;;;;;;;28.98;15.25;;;;;;;-8.28;100.00;94679.81;5020783;28;20064;-87
2022/01/13 08:29:00;;;;;;;22.92;13.30;;;;;;;-8.34;100.00;94682.53;5053336;28;20049;-85
2022/01/13 08:31:29;;;;;;;22.88;13.13;;;;;;;-8.35;100.00;94686.69;5056527;28;20048;-87
2022/01/13 08:34:11;;;;;;;;;;;;;;;;;;;;;
2022/01/13 08:36:49;;;;;;;26.33;14.80;;;;;;;-8.35;100.00;94683.38;5049369;28;20053;-87
2022/01/13 08:39:18;;;;;;;37.63;20.80;;;;;;;-8.41;100.00;94696.09;5039991;28;20053;-86
2022/01/13 08:41:45;;;;;;;34.20;18.75;;;;;;;-8.59;100.00;94684.28;5032893;28;20049;-86
2022/01/13 08:44:12;;;;;;;38.45;20.23;;;;;;;-8.48;100.00;94688.84;5032893;28;20547;-87
2022/01/13 08:46:40;;;;;;;27.05;15.13;;;;;;;-8.65;100.00;94677.06;5060778;28;20044;-86
2022/01/13 08:49:06;;;;;;;24.23;13.23;;;;;;;-8.54;100.00;94689.09;5058464;28;20068;-86
2022/01/13 08:51:33;;;;;;;24.23;13.95;;;;;;;-8.78;100.00;94648.47;5060871;28;20527;-87
2022/01/13 08:54:03;;;;;;;24.65;14.23;;;;;;;-8.37;100.00;94671.00;5059690;28;20476;-86
2022/01/13 08:56:34;;;;;;;23.23;13.85;;;;;;;-8.47;100.00;94679.69;5060451;28;20492;-86
2022/01/13 08:59:00;;;;;;;34.05;19.08;;;;;;;-8.60;100.00;94690.13;5042743;28;20045;-86
2022/01/13 09:01:29;;;;;;;29.92;16.40;;;;;;;-8.49;100.00;94683.91;5045828;28;20060;-87
2022/01/13 09:04:01;;;;;;;25.17;14.38;;;;;;;-8.27;100.00;94693.88;5032938;28;20439;-87
2022/01/13 09:06:27;;;;;;;26.10;15.65;;;;;;;-8.13;100.00;94683.38;5039412;28;20052;-87
2022/01/13 09:08:56;;;;;;;31.27;15.52;;;;;;;-8.28;100.00;94697.25;5057639;28;20102;-86
2022/01/13 09:11:35;;;;;;;;;;;;;;;;;;;;;
2022/01/13 09:14:06;;;;;;;26.63;15.00;;;;;;;-8.26;100.00;94680.56;5051805;28;20131;-87
2022/01/13 09:16:41;;;;;;;23.40;13.52;;;;;;;-8.14;100.00;94688.44;5052121;28;20484;-87
2022/01/13 09:19:13;;;;;;;22.23;13.18;;;;;;;-8.37;100.00;94645.25;5052206;28;20057;-86
2022/01/13 09:21:46;;;;;;;20.60;12.93;;;;;;;-8.42;100.00;94655.41;5052005;28;20458;-86
2022/01/13 09:24:21;;;;;;;22.45;14.88;;;;;;;-8.48;100.00;94660.63;5051533;28;20434;-87
2022/01/13 09:26:52;;;;;;;22.50;13.10;;;;;;;-8.84;100.00;94607.19;5051775;28;20135;-86
2022/01/13 09:29:20;;;;;;;18.25;11.13;;;;;;;-8.09;100.00;94681.59;5052333;28;20381;-88
2022/01/13 09:31:51;;;;;;;21.92;12.77;;;;;;;-7.94;100.00;94662.69;5051940;28;20056;-88
2022/01/13 09:34:24;;;;;;;22.75;12.20;;;;;;;-8.41;100.00;94532.41;5051981;28;20049;-88
2022/01/13 09:36:54;;;;;;;20.13;11.90;;;;;;;-7.23;100.00;94649.00;5051730;28;20099;-88
2022/01/13 09:39:20;;;;;;;22.00;11.98;;;;;;;-7.15;100.00;94658.66;5051806;28;20572;-87
2022/01/13 09:41:53;;;;;;;22.33;11.95;;;;;;;-7.11;100.00;94658.47;5051614;28;20045;-88
2022/01/13 09:44:25;;;;;;;21.60;12.02;;;;;;;-7.06;100.00;94638.28;5051626;28;20041;-87
2022/01/13 09:47:10;;;;;;;28.05;13.68;;;;;;;-7.46;100.00;94655.78;5050709;28;20052;-88
2022/01/13 09:49:37;;;;;;;20.15;11.43;;;;;;;-7.58;100.00;94646.31;5048759;28;20072;-88
2022/01/13 09:52:05;;;;;;;28.52;16.58;;;;;;;-7.43;100.00;94643.16;5050675;28;20487;-88
2022/01/13 09:54:46;;;;;;;24.38;13.57;;;;;;;-7.48;100.00;94647.53;5048193;28;20049;-87
2022/01/13 09:57:13;;;;;;;29.20;17.80;;;;;;;-7.67;100.00;94635.03;5048738;28;20090;-87
2022/01/13 09:59:44;;;;;;;32.95;18.88;;;;;;;-7.54;100.00;94612.88;5050141;28;20049;-87
2022/01/13 10:02:13;;;;;;;22.25;12.63;;;;;;;-7.80;100.00;94557.38;5051008;28;20470;-87
2022/01/13 10:04:46;;;;;;;22.58;12.63;;;;;;;-7.27;100.00;94615.84;5048063;28;20053;-88
2022/01/13 10:07:18;;;;;;;29.25;15.73;;;;;;;-6.95;100.00;94594.53;5050782;28;20110;-88
2022/01/13 10:09:55;;;;;;;22.48;14.05;;;;;;;-6.68;99.00;94592.47;5051324;28;20522;-88
2022/01/13 10:12:28;;;;;;;19.08;11.48;;;;;;;-7.12;97.83;94591.09;5050916;28;20060;-88
2022/01/13 10:18:13;;;;;;;25.60;13.88;;;;;;;-6.64;100.00;94576.47;5051213;28;20063;-88
2022/01/13 10:20:40;;;;;;;25.63;13.60;;;;;;;-6.83;98.43;94589.00;5047324;28;20045;-87
2022/01/13 10:23:08;;;;;;;21.88;11.90;;;;;;;-7.23;99.47;94591.56;5051228;28;20044;-87
2022/01/13 10:25:37;;;;;;;22.00;12.65;;;;;;;-7.41;100.00;94579.00;5050606;28;20045;-88
2022/01/13 10:28:17;;;;;;;22.33;14.10;;;;;;;-7.23;100.00;94571.59;5050551;28;20044;-88
2022/01/13 10:30:50;;;;;;;24.13;13.50;;;;;;;-7.46;98.30;94572.59;5050900;28;20045;-88
2022/01/13 10:33:20;;;;;;;34.55;18.15;;;;;;;-7.38;99.31;94560.59;5050375;28;20065;-89
2022/01/13 10:35:49;;;;;;;19.45;12.00;;;;;;;-7.35;99.17;94567.13;5051017;28;20055;-89
2022/01/13 10:38:20;;;;;;;34.60;17.80;;;;;;;-7.16;98.47;94552.97;5051215;28;20044;-88
2022/01/13 10:40:49;;;;;;;20.63;11.93;;;;;;;-7.07;99.31;94551.75;5051108;28;20152;-88
2022/01/13 10:43:26;;;;;;;23.17;13.10;;;;;;;-7.13;99.31;94555.31;5050715;28;20045;-88
2022/01/13 10:45:56;;;;;;;21.38;12.15;;;;;;;-7.32;98.42;94502.91;5050787;28;20057;-88
2022/01/13 10:48:27;;;;;;;39.60;18.95;;;;;;;-6.96;97.07;94531.28;5050159;28;20048;-89
2022/01/13 10:51:02;;;;;;;212.65;69.75;;;;;;;-6.77;95.91;94526.25;5050195;28;20118;-90
2022/01/13 10:53:35;;;;;;;295.92;98.03;;;;;;;-6.54;95.04;94546.06;5050696;28;20049;-89
2022/01/13 10:56:05;;;;;;;38.65;19.35;;;;;;;-6.60;95.56;94537.97;5050536;28;20411;-89
2022/01/13 10:58:35;;;;;;;35.25;19.60;;;;;;;-6.42;97.96;94524.63;5050974;28;20060;-88
2022/01/13 11:01:06;;;;;;;22.70;13.05;;;;;;;-6.00;97.92;94515.91;5050238;28;20095;-89
2022/01/13 11:03:39;;;;;;;24.08;13.05;;;;;;;-6.11;95.35;94500.66;5030642;28;20046;-88
2022/01/13 11:06:19;;;;;;;;;;;;;;;;;;;;;
2022/01/13 11:08:51;;;;;;;21.83;13.18;;;;;;;-5.83;96.31;94542.56;5045302;28;20052;-88
2022/01/13 11:11:21;;;;;;;22.45;12.85;;;;;;;-5.59;96.24;94521.41;5045511;28;20049;-89
2022/01/13 11:13:56;;;;;;;21.33;12.10;;;;;;;-5.37;94.98;94531.91;5045325;28;20053;-89
2022/01/13 11:16:29;;;;;;;20.60;12.00;;;;;;;-5.59;94.23;94531.41;5025949;28;20144;-88
2022/01/13 11:18:55;;;;;;;27.58;15.15;;;;;;;-5.56;94.79;94524.53;5025499;28;20128;-88
2022/01/13 11:21:23;;;;;;;21.30;12.43;;;;;;;-5.55;94.52;94528.66;5025785;28;20064;-86
2022/01/13 11:23:51;;;;;;;23.52;12.98;;;;;;;-5.21;96.17;94531.13;5026195;28;20127;-89
2022/01/13 11:26:21;;;;;;;22.50;13.80;;;;;;;-5.12;94.78;94528.16;5025821;28;20049;-86
2022/01/13 11:28:50;;;;;;;21.80;12.65;;;;;;;-5.65;93.23;94510.81;5025664;28;20547;-87
2022/01/13 11:31:19;;;;;;;24.10;14.00;;;;;;;-5.67;95.04;94519.28;5025772;28;20076;-88
2022/01/13 11:33:49;;;;;;;26.63;14.60;;;;;;;-5.32;96.08;94518.34;5025686;28;20072;-88
2022/01/13 11:36:23;;;;;;;21.17;12.00;;;;;;;-5.14;95.35;94509.06;5025559;28;20053;-88
2022/01/13 11:38:57;;;;;;;19.55;11.75;;;;;;;-4.92;94.82;94500.41;5025791;28;20049;-87
2022/01/13 11:41:27;;;;;;;21.13;12.40;;;;;;;-5.02;91.71;94503.41;5025503;28;20045;-88
2022/01/13 11:44:12;;;;;;;21.67;12.63;;;;;;;-5.22;93.59;94509.47;5033585;28;20080;-87
2022/01/13 11:46:46;;;;;;;21.40;12.68;;;;;;;-5.55;93.75;94490.31;5047656;28;20507;-87